Time;durP1;ratioP1;P1;durP2;ratioP2;P2;SDS_P1;SDS_P2;PMS_P1;PMS_P2;Temp;Humidity;BMP_temperature;BMP_pressure;BME280_temperature;BME280_humidity;BME280_pressure;Samples;Min_cycle;Max_cycle;Signal;HPM_P1;HPM_P2
2022/08/11 00:00:11;;;;;;;15.88;6.90;;;18.80;99.90;;;;;;5093703;28;20048;-69
2022/08/11 00:02:40;;;;;;;10.77;7.47;;;19.00;99.90;;;;;;5093517;28;20047;-69
2022/08/11 00:05:10;;;;;;;13.27;7.80;;;19.70;99.90;;;;;;5093555;28;20059;-69
2022/08/11 00:07:56;;;;;;;12.07;7.68;;;18.90;99.90;;;;;;5093392;28;20080;-69
2022/08/11 00:10:28;;;;;;;16.17;8.15;;;19.10;99.90;;;;;;5094651;28;20060;-69
2022/08/11 00:12:59;;;;;;;13.48;7.28;;;19.10;99.90;;;;;;5094675;28;20080;-69
2022/08/11 00:15:27;;;;;;;10.10;7.27;;;18.90;99.90;;;;;;5093498;28;20039;-69
2022/08/11 00:17:59;;;;;;;12.55;8.00;;;19.10;99.90;;;;;;5092810;28;20047;-69
2022/08/11 00:20:31;;;;;;;11.82;8.10;;;18.90;99.90;;;;;;5093481;28;20044;-69
2022/08/11 00:22:57;;;;;;;;;;;;;;;;;;5093890;28;20036;-69
2022/08/11 00:25:23;;;;;;;11.68;7.80;;;;;;;;;;5127573;27;20399;-69
2022/08/11 00:27:49;;;;;;;13.15;8.07;;;;;;;;;;5093121;28;20050;-69
2022/08/11 00:30:16;;;;;;;16.70;7.85;;;18.30;99.90;;;;;;5076569;28;20123;-69
2022/08/11 00:32:44;;;;;;;11.75;8.00;;;18.80;99.90;;;;;;5093341;28;20055;-69
2022/08/11 00:35:16;;;;;;;15.20;7.97;;;18.90;99.90;;;;;;5094195;28;20492;-69
2022/08/11 00:37:48;;;;;;;18.20;8.20;;;18.80;99.90;;;;;;5093406;28;20036;-69
2022/08/11 00:40:25;;;;;;;14.55;7.70;;;18.70;99.90;;;;;;5092863;28;20086;-69
2022/08/11 00:43:33;;;;;;;13.98;7.82;;;18.70;99.90;;;;;;5093252;28;20048;-69
2022/08/11 00:46:33;;;;;;;17.15;7.95;;;18.80;99.90;;;;;;5091873;28;20044;-69
2022/08/11 00:49:32;;;;;;;13.23;7.95;;;18.80;99.90;;;;;;5126214;27;20127;-69
2022/08/11 00:52:04;;;;;;;13.20;7.78;;;18.70;99.90;;;;;;5092649;28;20044;-69
2022/08/11 00:54:57;;;;;;;14.20;7.93;;;18.70;99.90;;;;;;5092763;28;20385;-69
2022/08/11 00:58:03;;;;;;;12.27;7.85;;;19.00;99.90;;;;;;5092517;28;20047;-69
2022/08/11 01:00:34;;;;;;;13.07;7.63;;;;;;;;;;5092521;28;20044;-69
2022/08/11 01:03:02;;;;;;;16.08;8.23;;;18.00;99.90;;;;;;5092742;28;20058;-69
2022/08/11 01:06:03;;;;;;;16.45;8.27;;;18.70;99.90;;;;;;5092488;28;20040;-69
2022/08/11 01:09:00;;;;;;;14.27;8.20;;;18.40;99.90;;;;;;5092310;28;20064;-69
2022/08/11 01:11:32;;;;;;;14.35;7.68;;;;;;;;;;5075409;28;20177;-69
2022/08/11 01:13:58;;;;;;;;;;;;;;;;;;5092663;28;20047;-69
2022/08/11 01:16:24;;;;;;;12.60;7.65;;;;;;;;;;5126448;27;19924;-69
2022/08/11 01:18:50;;;;;;;16.33;7.25;;;;;;;;;;5092533;28;20047;-69
2022/08/11 01:21:19;;;;;;;12.20;7.32;;;18.60;99.90;;;;;;5092614;28;20040;-69
2022/08/11 01:24:16;;;;;;;14.55;7.93;;;18.30;99.90;;;;;;5092367;28;20089;-69
2022/08/11 01:27:13;;;;;;;12.63;7.85;;;18.30;99.90;;;;;;5092195;28;20051;-69
2022/08/11 01:29:57;;;;;;;14.05;7.97;;;18.60;99.90;;;;;;5091291;28;20043;-69
2022/08/11 01:32:48;;;;;;;15.27;7.80;;;18.20;99.90;;;;;;5092110;28;20070;-69
2022/08/11 01:35:14;;;;;;;13.50;7.70;;;;;;;;;;5092076;28;20048;-69
2022/08/11 01:37:59;;;;;;;15.25;7.60;;;18.20;99.90;;;;;;5092119;28;20036;-69
2022/08/11 01:41:12;;;;;;;13.75;8.10;;;18.40;99.90;;;;;;5092287;28;20069;-69
2022/08/11 01:44:37;;;;;;;13.52;8.48;;;18.20;99.90;;;;;;5126050;27;20044;-69
2022/08/11 01:47:50;;;;;;;12.65;7.80;;;18.10;99.90;;;;;;5092101;28;20085;-69
2022/08/11 01:50:24;;;;;;;19.07;8.50;;;;;;;;;;5093231;28;20533;-69
2022/08/11 01:53:02;;;;;;;15.82;7.25;;;18.00;99.90;;;;;;5092194;28;20308;-69
2022/08/11 01:55:39;;;;;;;10.20;7.28;;;19.20;99.90;;;;;;5091876;28;20040;-69
2022/08/11 01:58:19;;;;;;;13.40;7.82;;;18.00;99.90;;;;;;5091898;28;20127;-69
2022/08/11 02:01:10;;;;;;;12.05;7.90;;;19.00;99.90;;;;;;5092134;28;20773;-69
2022/08/11 02:03:46;;;;;;;10.48;7.20;;;;;;;;;;5091823;28;20047;-69
2022/08/11 02:09:23;;;;;;;12.35;7.90;;;19.20;99.90;;;;;;5091836;28;20083;-69
2022/08/11 02:11:51;;;;;;;12.90;8.20;;;17.90;99.90;;;;;;5091780;28;20055;-69
2022/08/11 02:14:45;;;;;;;12.68;7.45;;;18.20;99.90;;;;;;5092060;28;20062;-69
2022/08/11 02:17:21;;;;;;;11.43;7.70;;;18.90;99.90;;;;;;5091717;28;20044;-69
2022/08/11 02:25:36;;;;;;;17.33;8.30;;;17.50;99.90;;;;;;5091483;28;20051;-69
2022/08/11 02:28:02;;;;;;;13.25;8.23;;;;;;;;;;5091888;28;20047;-69
2022/08/11 02:30:34;;;;;;;13.77;8.73;;;17.90;99.90;;;;;;5091645;28;20032;-69
2022/08/11 02:35:46;;;;;;;12.40;7.57;;;;;;;;;;5091406;28;20104;-69
2022/08/11 02:38:31;;;;;;;13.35;8.10;;;18.00;99.90;;;;;;5092725;28;20043;-69
2022/08/11 02:41:00;;;;;;;13.77;8.38;;;;;;;;;;5077484;28;20552;-69
2022/08/11 02:44:03;;;;;;;15.27;7.82;;;17.90;99.90;;;;;;5095181;28;20043;-69
2022/08/11 02:46:46;;;;;;;12.70;7.50;;;17.70;99.90;;;;;;5095354;28;20484;-69
2022/08/11 02:52:52;;;;;;;11.70;8.00;;;17.80;99.90;;;;;;5095018;28;20055;-69
2022/08/11 02:55:42;;;;;;;16.67;7.35;;;17.60;99.90;;;;;;5094887;28;20051;-69
2022/08/11 02:58:20;;;;;;;16.42;8.52;;;17.80;99.90;;;;;;5118058;27;20471;-69
2022/08/11 03:00:51;;;;;;;14.18;7.63;;;17.90;99.90;;;;;;5096063;28;20457;-69
2022/08/11 03:03:32;;;;;;;17.97;7.83;;;17.60;99.90;;;;;;5094662;28;20488;-69
2022/08/11 03:06:09;;;;;;;15.02;7.82;;;17.60;99.90;;;;;;5094851;28;20039;-69
2022/08/11 03:08:51;;;;;;;13.63;7.65;;;17.70;99.90;;;;;;5094570;28;20068;-69
2022/08/11 03:17:36;;;;;;;21.98;7.78;;;17.70;99.90;;;;;;5094487;28;20108;-69
2022/08/11 03:20:06;;;;;;;13.85;8.15;;;;;;;;;;5094544;28;20123;-69
2022/08/11 03:22:54;;;;;;;16.08;8.18;;;17.50;99.90;;;;;;5094423;28;20059;-69
2022/08/11 03:25:33;;;;;;;14.93;8.60;;;;;;;;;;5094269;28;20488;-69
2022/08/11 03:28:13;;;;;;;14.50;8.10;;;17.50;99.90;;;;;;5094265;28;20040;-69
2022/08/11 03:30:42;;;;;;;13.15;7.85;;;;;;;;;;5094619;28;20098;-69
2022/08/11 03:34:04;;;;;;;14.65;8.18;;;17.40;99.90;;;;;;5094116;28;20036;-69
2022/08/11 03:36:49;;;;;;;12.52;7.75;;;17.50;99.90;;;;;;5102076;27;20130;-69
2022/08/11 03:39:42;;;;;;;16.27;8.88;;;17.20;99.90;;;;;;5094028;28;20043;-69
2022/08/11 03:42:26;;;;;;;14.95;8.18;;;;;;;;;;5094019;28;20173;-69
2022/08/11 03:45:09;;;;;;;13.02;8.13;;;17.20;99.90;;;;;;5093953;28;20070;-69
2022/08/11 03:47:35;;;;;;;;;;;;;;;;;;5094466;28;20051;-69
2022/08/11 03:50:01;;;;;;;15.60;8.30;;;;;;;;;;5128103;27;19916;-69
2022/08/11 03:53:00;;;;;;;14.23;8.48;;;17.30;99.90;;;;;;5093165;28;20051;-69
2022/08/11 03:56:11;;;;;;;14.05;8.63;;;17.30;99.90;;;;;;5093654;28;20048;-69
2022/08/11 03:58:56;;;;;;;17.35;8.02;;;;;;;;;;5124615;27;20523;-69
2022/08/11 04:01:37;;;;;;;15.43;8.70;;;;;;;;;;5093440;28;20044;-69
2022/08/11 04:04:03;;;;;;;17.15;8.43;;;;;;;;;;5093584;28;20048;-69
2022/08/11 04:07:09;;;;;;;11.95;8.25;;;17.00;99.90;;;;;;5094943;28;20113;-69
2022/08/11 04:10:05;;;;;;;18.70;9.50;;;17.10;99.90;;;;;;5073672;28;20061;-69
2022/08/11 04:12:56;;;;;;;16.58;8.70;;;17.20;99.90;;;;;;5093362;28;20050;-69
2022/08/11 04:16:02;;;;;;;14.25;8.13;;;17.40;99.90;;;;;;5076205;28;20062;-69
2022/08/11 04:18:28;;;;;;;13.68;8.15;;;;;;;;;;5093337;28;20032;-69
2022/08/11 04:20:57;;;;;;;13.77;8.30;;;17.20;99.90;;;;;;5093473;28;20040;-69
2022/08/11 04:23:23;;;;;;;15.88;8.85;;;;;;;;;;5093205;28;20075;-69
2022/08/11 04:26:09;;;;;;;14.65;9.20;;;17.20;99.90;;;;;;5093215;28;20044;-69
2022/08/11 04:28:59;;;;;;;16.33;8.95;;;17.20;99.90;;;;;;5093086;28;20388;-69
2022/08/11 04:31:56;;;;;;;13.00;9.70;;;17.10;99.90;;;;;;5076240;28;20059;-69
2022/08/11 04:34:28;;;;;;;14.10;9.25;;;;;;;;;;5093345;28;20396;-69
2022/08/11 04:40:22;;;;;;;18.40;9.55;;;16.90;99.90;;;;;;5092845;28;20160;-69
2022/08/11 04:43:42;;;;;;;15.27;9.68;;;17.00;99.90;;;;;;5092761;28;20036;-69
2022/08/11 04:46:28;;;;;;;17.73;9.43;;;17.20;99.90;;;;;;5068695;28;20044;-69
2022/08/11 05:01:51;;;;;;;15.88;9.48;;;16.90;99.90;;;;;;5092664;28;20050;-69
2022/08/11 05:07:13;;;;;;;17.17;9.90;;;;;;;;;;5092378;28;20044;-69
2022/08/11 05:10:14;;;;;;;17.27;10.32;;;17.20;99.90;;;;;;5092180;28;20524;-69
2022/08/11 05:12:55;;;;;;;15.55;9.13;;;17.20;99.90;;;;;;5092391;28;20055;-69
2022/08/11 05:35:45;;;;;;;16.50;9.82;;;17.90;99.90;;;;;;5091989;28;20048;-69
2022/08/11 05:58:00;;;;;;;16.52;10.00;;;18.10;99.90;;;;;;5091878;28;20507;-69
2022/08/11 06:00:27;;;;;;;16.10;9.85;;;18.00;99.90;;;;;;5091762;28;20404;-69
2022/08/11 06:02:55;;;;;;;13.88;10.10;;;18.10;99.90;;;;;;5075006;28;20044;-69
2022/08/11 06:05:21;;;;;;;16.20;9.27;;;;;;;;;;5092906;28;20044;-69
2022/08/11 06:07:48;;;;;;;14.95;9.30;;;18.40;99.90;;;;;;5091922;28;20456;-69
2022/08/11 06:10:38;;;;;;;17.13;10.00;;;18.00;99.90;;;;;;5091712;28;20044;-69
2022/08/11 06:13:06;;;;;;;15.63;9.80;;;;;;;;;;5091806;28;20040;-69
2022/08/11 06:15:42;;;;;;;16.30;9.73;;;18.60;99.90;;;;;;5094224;28;20071;-69
2022/08/11 06:18:10;;;;;;;16.15;9.52;;;18.20;99.90;;;;;;5095729;28;20076;-69
2022/08/11 06:20:53;;;;;;;19.90;9.25;;;18.40;99.90;;;;;;5078925;28;20051;-69
2022/08/11 06:23:22;;;;;;;16.90;9.15;;;;;;;;;;5095612;28;20377;-69
2022/08/11 06:25:49;;;;;;;18.52;9.80;;;;;;;;;;5095540;28;20055;-69
2022/08/11 06:28:18;;;;;;;14.75;8.93;;;18.90;99.90;;;;;;5095438;28;20044;-69
2022/08/11 06:30:45;;;;;;;14.63;9.23;;;19.60;99.90;;;;;;5095477;28;20541;-69
2022/08/11 06:33:17;;;;;;;16.45;10.48;;;18.60;99.90;;;;;;5095698;28;20118;-69
2022/08/11 06:36:10;;;;;;;17.08;9.77;;;18.70;99.90;;;;;;5095426;28;20054;-69
2022/08/11 06:38:40;;;;;;;15.55;9.95;;;;;;;;;;5095564;28;20062;-69
2022/08/11 06:41:30;;;;;;;15.02;9.15;;;;;;;;;;5095591;28;20452;-69
2022/08/11 06:44:00;;;;;;;16.00;9.73;;;;;;;;;;5095502;28;20126;-69
2022/08/11 06:46:30;;;;;;;16.67;10.23;;;;;;;;;;5095543;28;20084;-69
2022/08/11 06:48:56;;;;;;;14.23;8.93;;;;;;;;;;5095107;28;20048;-69
2022/08/11 06:51:23;;;;;;;16.42;9.65;;;18.90;99.90;;;;;;5095146;28;20073;-69
2022/08/11 06:53:59;;;;;;;13.57;9.05;;;19.00;99.90;;;;;;5095122;28;20085;-69
2022/08/11 07:02:32;;;;;;;18.17;8.80;;;19.00;99.90;;;;;;5094985;28;20066;-69
2022/08/11 07:05:23;;;;;;;12.90;9.00;;;19.40;99.90;;;;;;5094820;28;20119;-69
2022/08/11 07:16:55;;;;;;;13.23;7.63;;;;;;;;;;5054092;28;20048;-69
2022/08/11 07:30:43;;;;;;;12.52;7.88;;;;;;;;;;5038704;28;20037;-69
2022/08/11 07:33:12;;;;;;;16.73;8.43;;;20.00;99.90;;;;;;5054165;28;20048;-69
2022/08/11 07:35:44;;;;;;;12.18;6.75;;;20.00;99.90;;;;;;5055319;28;20044;-69
2022/08/11 07:38:21;;;;;;;12.63;7.35;;;20.10;99.90;;;;;;5054313;28;20045;-69
2022/08/11 07:40:48;;;;;;;14.18;6.85;;;21.00;99.90;;;;;;5053789;28;20049;-69
2022/08/11 07:43:14;;;;;;;14.32;6.80;;;;;;;;;;5055094;28;20041;-69
2022/08/11 07:54:07;;;;;;;10.35;6.57;;;20.70;99.90;;;;;;5054000;28;20136;-69
2022/08/11 07:56:35;;;;;;;19.08;6.65;;;20.80;99.90;;;;;;5053684;28;20114;-69
2022/08/11 08:18:25;;;;;;;10.40;6.00;;;21.90;99.90;;;;;;5093319;28;20093;-69
2022/08/11 08:20:51;;;;;;;12.98;6.35;;;;;;;;;;5093297;28;20044;-69
2022/08/11 08:23:31;;;;;;;15.55;5.50;;;22.20;99.90;;;;;;5093518;28;20400;-69
2022/08/11 08:26:00;;;;;;;12.07;5.63;;;21.00;99.90;;;;;;5076455;28;20123;-69
2022/08/11 08:28:27;;;;;;;11.43;5.43;;;;;;;;;;5093235;28;20044;-69
2022/08/11 08:30:55;;;;;;;16.48;5.78;;;22.20;99.90;;;;;;5093107;28;20077;-69
2022/08/11 08:33:23;;;;;;;8.25;5.22;;;22.10;99.90;;;;;;5093397;28;20112;-69
2022/08/11 08:36:10;;;;;;;11.20;5.70;;;21.90;99.90;;;;;;5093197;28;20116;-70
2022/08/11 08:38:56;;;;;;;10.48;4.85;;;21.90;99.90;;;;;;5092649;28;20072;-70
2022/08/11 08:41:24;;;;;;;8.50;5.00;;;;;;;;;;5126809;27;20086;-69
2022/08/11 08:43:53;;;;;;;11.65;5.10;;;22.30;99.90;;;;;;5092954;28;20128;-69
2022/08/11 08:46:24;;;;;;;8.45;5.32;;;22.40;99.90;;;;;;5092975;28;20050;-70
2022/08/11 08:48:51;;;;;;;7.43;4.35;;;21.80;99.90;;;;;;5093030;28;20427;-70
2022/08/11 08:51:36;;;;;;;8.80;4.75;;;23.10;99.90;;;;;;5092726;28;20044;-69
2022/08/11 08:54:24;;;;;;;8.07;4.32;;;;;;;;;;5092859;28;20055;-70
2022/08/11 08:56:53;;;;;;;6.70;3.97;;;23.30;99.90;;;;;;5092826;28;20044;-69
2022/08/11 08:59:22;;;;;;;11.82;4.43;;;21.80;99.90;;;;;;5092642;28;20096;-70
2022/08/11 09:02:00;;;;;;;7.97;4.40;;;;;;;;;;5093797;28;20118;-69
2022/08/11 09:04:27;;;;;;;10.68;4.20;;;23.50;99.90;;;;;;5092528;28;20043;-69
2022/08/11 09:06:57;;;;;;;8.95;4.03;;;23.80;99.90;;;;;;5092579;28;20496;-69
2022/08/11 09:09:24;;;;;;;8.02;3.65;;;23.10;98.10;;;;;;5093711;28;20407;-70
2022/08/11 09:11:52;;;;;;;10.23;4.25;;;23.10;97.40;;;;;;5092731;28;20040;-70
2022/08/11 09:17:21;;;;;;;9.27;3.97;;;24.10;99.90;;;;;;5092365;28;20108;-70
2022/08/11 09:19:50;;;;;;;5.35;3.30;;;24.10;99.90;;;;;;5092272;28;20048;-70
2022/08/11 09:27:55;;;;;;;12.70;4.07;;;24.50;99.90;;;;;;5092306;28;20040;-70
2022/08/11 09:30:25;;;;;;;9.90;3.85;;;24.60;99.90;;;;;;5092382;28;20050;-70
2022/08/11 09:32:56;;;;;;;8.70;4.03;;;24.50;99.60;;;;;;5093505;28;20119;-70
2022/08/11 09:35:31;;;;;;;6.93;3.25;;;24.70;99.50;;;;;;5092101;28;20063;-70
2022/08/11 09:40:45;;;;;;;8.60;3.75;;;25.00;99.10;;;;;;5093425;28;20105;-69
2022/08/11 09:45:58;;;;;;;9.48;3.33;;;24.60;97.90;;;;;;5092136;28;20048;-69
2022/08/11 09:48:26;;;;;;;7.38;3.13;;;25.20;97.90;;;;;;5092186;28;20055;-70
2022/08/11 09:50:58;;;;;;;4.32;2.83;;;25.00;97.50;;;;;;5095688;28;20048;-70
2022/08/11 09:53:27;;;;;;;7.53;2.90;;;25.30;97.40;;;;;;5079348;28;20048;-69
2022/08/11 09:55:54;;;;;;;5.32;2.97;;;25.50;97.20;;;;;;5096396;28;20047;-69
2022/08/11 09:58:21;;;;;;;6.78;3.08;;;25.40;97.00;;;;;;5096256;28;20476;-70
2022/08/11 10:00:48;;;;;;;7.60;2.80;;;25.20;92.00;;;;;;5079652;28;20131;-70
2022/08/11 10:03:22;;;;;;;7.20;2.88;;;25.00;95.90;;;;;;5096296;28;20075;-70
2022/08/11 10:08:40;;;;;;;4.13;2.60;;;25.10;94.30;;;;;;5095972;28;20056;-70
2022/08/11 10:11:10;;;;;;;6.25;3.13;;;25.50;94.10;;;;;;5130263;27;20060;-70
2022/08/11 10:16:28;;;;;;;9.18;4.10;;;26.10;93.60;;;;;;5095884;28;20404;-70
2022/08/11 10:18:54;;;;;;;4.95;2.70;;;26.20;93.00;;;;;;5096084;28;20110;-70
2022/08/11 10:21:40;;;;;;;9.57;2.83;;;26.20;92.90;;;;;;5097066;28;20097;-70
2022/08/11 10:26:57;;;;;;;4.47;2.53;;;25.60;87.50;;;;;;5095564;28;20100;-69
2022/08/11 10:35:11;;;;;;;5.90;2.63;;;26.40;90.40;;;;;;5095454;28;20048;-70
2022/08/11 10:37:37;;;;;;;4.90;2.42;;;26.60;90.50;;;;;;5095429;28;20093;-70
2022/08/11 10:40:07;;;;;;;11.50;2.60;;;27.00;85.10;;;;;;5096676;28;20093;-70
2022/08/11 10:48:05;;;;;;;9.05;2.70;;;27.00;88.90;;;;;;5095072;28;20048;-70
2022/08/11 10:58:48;;;;;;;6.03;3.10;;;27.00;87.60;;;;;;5095095;28;20487;-70
2022/08/11 11:01:25;;;;;;;5.53;2.97;;;27.00;86.30;;;;;;5094724;28;20510;-70
2022/08/11 11:03:57;;;;;;;18.45;3.78;;;27.60;86.70;;;;;;5095278;28;20059;-70
2022/08/11 11:06:57;;;;;;;107.03;9.27;;;27.00;74.60;;;;;;5095011;28;20040;-70
2022/08/11 11:09:31;;;;;;;5.47;2.90;;;27.20;75.50;;;;;;5095175;28;20091;-70
2022/08/11 11:18:05;;;;;;;200.82;17.63;;;27.90;86.60;;;;;;5095980;28;20487;-71
2022/08/11 11:21:06;;;;;;;601.60;36.03;;;27.80;86.80;;;;;;5095822;28;20040;-71
2022/08/11 11:23:35;;;;;;;230.55;14.50;;;27.80;85.80;;;;;;5088940;28;20052;-70
2022/08/11 11:26:10;;;;;;;125.32;10.23;;;27.80;75.10;;;;;;5094722;28;20051;-70
2022/08/11 11:29:07;;;;;;;15.90;4.55;;;27.90;71.80;;;;;;5094485;28;20522;-70
2022/08/11 11:31:52;;;;;;;6.20;2.95;;;28.00;84.50;;;;;;5094332;28;20051;-70
2022/08/11 11:34:36;;;;;;;7.43;3.13;;;27.90;72.70;;;;;;5094461;28;20048;-70
2022/08/11 11:37:03;;;;;;;7.32;2.85;;;27.80;84.90;;;;;;5094239;28;20072;-70
2022/08/11 11:39:31;;;;;;;6.70;3.00;;;28.00;84.50;;;;;;5094221;28;20044;-70
2022/08/11 11:42:02;;;;;;;6.82;2.90;;;28.20;83.50;;;;;;5094205;28;20051;-70
2022/08/11 11:44:28;;;;;;;18.73;3.28;;;28.00;73.80;;;;;;5095547;28;20118;-70
2022/08/11 11:46:54;;;;;;;7.75;2.60;;;28.20;83.70;;;;;;5094190;28;20044;-70
2022/08/11 11:49:28;;;;;;;10.20;3.00;;;28.50;83.90;;;;;;5094361;28;20051;-70
2022/08/11 11:51:55;;;;;;;4.90;2.55;;;28.50;81.80;;;;;;5094089;28;20071;-70
2022/08/11 11:54:23;;;;;;;9.73;3.38;;;28.30;80.90;;;;;;5095289;28;20047;-70
2022/08/11 11:56:52;;;;;;;8.20;2.65;;;28.40;71.70;;;;;;5094154;28;20047;-70
2022/08/11 12:02:10;;;;;;;4.93;2.70;;;28.50;71.40;;;;;;5093670;28;20544;-70
2022/08/11 12:04:44;;;;;;;9.00;3.17;;;28.40;68.50;;;;;;5077122;28;20389;-70
2022/08/11 12:09:56;;;;;;;8.18;3.22;;;28.80;80.80;;;;;;5093521;28;20056;-70
2022/08/11 12:15:08;;;;;;;6.18;2.78;;;29.00;81.40;;;;;;5079527;28;20048;-70
2022/08/11 12:17:37;;;;;;;7.68;2.80;;;29.10;75.00;;;;;;5093879;28;20134;-70
2022/08/11 12:20:04;;;;;;;8.63;2.90;;;28.90;80.40;;;;;;5093571;28;20083;-70
2022/08/11 12:28:01;;;;;;;6.88;2.90;;;;;;;;;;5093368;28;20046;-72
2022/08/11 12:30:27;;;;;;;10.23;2.50;;;;;;;;;;5107361;28;20044;-71
2022/08/11 12:32:54;;;;;;;7.55;2.85;;;29.30;78.30;;;;;;5095053;28;20115;-71
2022/08/11 12:35:21;;;;;;;8.65;2.97;;;29.00;68.50;;;;;;5105032;28;20039;-71
2022/08/11 12:37:50;;;;;;;7.07;2.72;;;29.00;75.10;;;;;;5113452;28;20051;-75
2022/08/11 12:46:00;;;;;;;7.85;2.95;;;29.60;68.50;;;;;;5099908;28;20131;-72
2022/08/11 12:54:25;;;;;;;6.70;2.50;;;29.70;75.50;;;;;;5098255;28;20052;-70
2022/08/11 13:05:20;;;;;;;10.27;3.35;;;30.00;63.20;;;;;;5092470;28;20396;-70
2022/08/11 13:07:47;;;;;;;7.30;2.70;;;29.70;74.50;;;;;;5092639;28;20051;-75
2022/08/11 13:13:07;;;;;;;8.15;2.95;;;30.10;74.80;;;;;;5110830;28;20044;-71
2022/08/11 13:15:35;;;;;;;10.38;3.03;;;30.30;75.30;;;;;;5102940;28;20070;-71
2022/08/11 13:18:01;;;;;;;9.38;4.07;;;;;;;;;;5075799;28;20468;-71
2022/08/11 13:20:27;;;;;;;8.10;3.30;;;;;;;;;;5109380;28;20054;-71
2022/08/11 13:22:55;;;;;;;12.25;3.25;;;29.60;67.50;;;;;;5108266;28;20073;-70
2022/08/11 13:25:24;;;;;;;12.77;3.63;;;30.30;76.90;;;;;;5099532;28;20477;-70
2022/08/11 13:27:53;;;;;;;6.63;3.20;;;29.90;76.40;;;;;;5093532;28;20369;-70
2022/08/11 13:33:06;;;;;;;5.72;3.50;;;;;;;;;;5107620;28;20044;-71
2022/08/11 13:35:33;;;;;;;8.88;3.58;;;29.60;77.90;;;;;;5105043;28;20110;-71
2022/08/11 13:38:04;;;;;;;10.32;3.70;;;30.00;78.50;;;;;;5096332;28;20071;-71
2022/08/11 13:40:31;;;;;;;13.73;3.80;;;30.00;68.70;;;;;;5109305;28;20069;-71
2022/08/11 13:42:58;;;;;;;9.02;3.38;;;30.00;78.40;;;;;;5110452;28;20055;-71
2022/08/11 13:45:25;;;;;;;10.77;3.45;;;30.20;69.70;;;;;;5098775;28;20172;-71
2022/08/11 13:47:55;;;;;;;8.00;3.55;;;29.90;68.40;;;;;;5112394;28;20047;-71
2022/08/11 13:51:29;;;;;;;12.98;3.50;;;;;;;;;;5111505;28;20043;-71
2022/08/11 13:53:07;;;;;;;10.80;3.75;;;30.20;77.30;;;;;;5109293;28;20086;-71
2022/08/11 13:55:33;;;;;;;9.00;3.15;;;;;;;;;;5113389;28;20040;-70
2022/08/11 13:57:59;;;;;;;11.93;3.20;;;30.20;76.70;;;;;;5112437;28;20036;-70
2022/08/11 14:00:30;;;;;;;7.97;3.28;;;30.30;76.50;;;;;;5112016;28;20032;-70
2022/08/11 14:02:58;;;;;;;8.35;3.38;;;29.80;76.10;;;;;;5112696;28;20054;-70
2022/08/11 14:05:32;;;;;;;9.65;3.20;;;30.10;76.70;;;;;;5112293;28;20437;-70
2022/08/11 14:08:03;;;;;;;7.35;3.03;;;30.00;76.00;;;;;;5112144;28;20054;-70
2022/08/11 14:10:31;;;;;;;15.10;3.40;;;29.70;72.30;;;;;;5112477;28;20047;-71
2022/08/11 14:16:03;;;;;;;10.52;4.05;;;30.00;75.20;;;;;;5113414;28;20127;-70
2022/08/11 14:18:31;;;;;;;18.92;3.38;;;29.90;64.90;;;;;;5112069;28;20039;-70
2022/08/11 14:23:49;;;;;;;8.43;3.30;;;30.50;74.60;;;;;;5092260;28;20090;-70
2022/08/11 14:26:25;;;;;;;8.23;3.63;;;30.30;64.60;;;;;;5093563;28;20062;-70
2022/08/11 14:29:07;;;;;;;9.60;4.10;;;30.40;74.60;;;;;;5110264;28;20451;-71
2022/08/11 14:31:35;;;;;;;10.93;3.78;;;30.30;74.20;;;;;;5105856;28;20051;-70
2022/08/11 14:34:05;;;;;;;8.07;3.20;;;30.70;74.20;;;;;;5093649;28;20063;-71
2022/08/11 14:36:38;;;;;;;7.90;2.92;;;30.70;74.00;;;;;;5104106;28;20031;-70
2022/08/11 14:39:41;;;;;;;6.93;2.63;;;30.40;74.40;;;;;;5107608;28;20368;-70
2022/08/11 14:47:43;;;;;;;6.85;3.10;;;30.60;74.10;;;;;;5102324;28;20043;-70
2022/08/11 14:50:18;;;;;;;10.32;3.20;;;30.80;73.70;;;;;;5113805;28;20122;-70
2022/08/11 14:52:53;;;;;;;8.50;3.10;;;30.10;72.90;;;;;;5102476;28;20084;-70
2022/08/11 14:58:09;;;;;;;7.18;3.20;;;30.70;73.60;;;;;;5086899;28;20465;-71
2022/08/11 15:00:35;;;;;;;5.38;2.97;;;;;;;;;;5111404;28;20038;-71
2022/08/11 15:03:10;;;;;;;5.85;3.65;;;29.80;73.40;;;;;;5092729;28;20146;-71
2022/08/11 15:05:39;;;;;;;9.88;3.50;;;30.30;73.80;;;;;;5092107;28;20047;-71
2022/08/11 15:08:07;;;;;;;7.38;3.35;;;30.20;73.80;;;;;;5097076;28;20044;-70
2022/08/11 15:10:33;;;;;;;9.32;3.10;;;30.10;73.40;;;;;;5094959;28;20044;-70
2022/08/11 15:13:00;;;;;;;9.15;3.45;;;30.50;63.20;;;;;;5103487;28;20519;-71
2022/08/11 15:18:15;;;;;;;6.53;3.08;;;29.90;73.40;;;;;;5101921;28;20040;-70
2022/08/11 15:37:24;;;;;;;11.10;3.13;;;30.10;73.90;;;;;;5112302;28;20442;-70
2022/08/11 15:37:28;;;;;;;7.70;3.33;;;29.90;74.00;;;;;;5109808;28;20044;-70
2022/08/11 15:46:01;;;;;;;12.60;3.10;;;30.30;74.40;;;;;;5093983;28;20165;-70
2022/08/11 15:48:32;;;;;;;8.73;2.80;;;29.40;73.70;;;;;;5096701;28;20504;-70
2022/08/11 15:51:24;;;;;;;6.38;3.05;;;29.50;74.00;;;;;;5094222;28;20032;-70
2022/08/11 15:54:02;;;;;;;5.38;3.03;;;30.00;68.50;;;;;;5065979;28;20048;-70
2022/08/11 15:56:30;;;;;;;10.48;2.90;;;30.00;69.60;;;;;;5078048;28;20429;-70
2022/08/11 16:04:34;;;;;;;9.80;3.20;;;29.30;73.60;;;;;;5100558;28;20750;-70
2022/08/11 16:07:09;;;;;;;8.02;3.05;;;29.80;63.50;;;;;;5096223;28;20079;-70
2022/08/11 16:09:40;;;;;;;9.63;3.22;;;29.20;73.70;;;;;;5084013;28;20055;-70
2022/08/11 16:12:11;;;;;;;10.55;3.33;;;29.80;74.30;;;;;;5095219;28;20096;-70
2022/08/11 16:17:31;;;;;;;10.25;3.03;;;29.60;64.40;;;;;;5104571;28;20040;-70
2022/08/11 16:19:59;;;;;;;7.78;3.00;;;30.10;74.70;;;;;;5093586;28;20038;-70
2022/08/11 16:22:40;;;;;;;10.43;3.45;;;30.20;74.70;;;;;;5091449;28;20040;-70
2022/08/11 16:25:09;;;;;;;8.73;2.88;;;29.80;73.40;;;;;;5093496;28;20036;-69
2022/08/11 16:27:42;;;;;;;6.43;3.42;;;30.30;73.40;;;;;;5097937;28;20073;-70
2022/08/11 16:30:09;;;;;;;8.07;2.70;;;30.30;72.90;;;;;;5095904;28;20047;-70
2022/08/11 16:32:39;;;;;;;7.03;2.63;;;30.00;71.20;;;;;;5096686;28;20067;-70
2022/08/11 16:40:40;;;;;;;10.05;2.92;;;30.80;72.50;;;;;;5096328;28;20114;-70
2022/08/11 16:48:42;;;;;;;12.25;2.97;;;31.00;64.10;;;;;;5103917;28;20047;-70
2022/08/11 16:51:11;;;;;;;7.07;3.22;;;30.70;72.30;;;;;;5109469;28;20131;-69
2022/08/11 16:53:39;;;;;;;9.63;3.30;;;31.10;72.60;;;;;;5101272;28;20039;-69
2022/08/11 16:56:06;;;;;;;7.93;2.75;;;31.20;65.70;;;;;;5102475;28;20364;-70
2022/08/11 17:01:22;;;;;;;6.45;3.22;;;31.30;64.80;;;;;;5097745;28;20044;-71
2022/08/11 17:18:05;;;;;;;5.85;2.90;;;31.70;70.90;;;;;;5095941;28;20046;-71
2022/08/11 17:20:32;;;;;;;9.27;3.47;;;31.60;71.20;;;;;;5094386;28;20074;-71
2022/08/11 17:25:47;;;;;;;7.45;3.63;;;31.80;60.50;;;;;;5092077;28;20083;-70
2022/08/11 17:28:16;;;;;;;11.27;3.38;;;31.90;60.10;;;;;;5095515;28;20043;-71
2022/08/11 17:36:30;;;;;;;7.50;3.55;;;;;;;;;;4994722;28;20080;-71
2022/08/11 17:38:56;;;;;;;7.25;3.60;;;29.50;73.90;;;;;;5080553;28;20132;-71
2022/08/11 17:49:38;;;;;;;7.60;3.53;;;27.60;77.30;;;;;;5097624;28;20090;-69
2022/08/11 18:00:24;;;;;;;9.27;3.20;;;27.30;79.80;;;;;;5111297;28;20399;-70
2022/08/11 18:05:42;;;;;;;6.32;3.92;;;27.50;80.60;;;;;;5095820;28;20050;-70
